createdAt,value
2023-03-02T10:25:51.905Z,5.27
2023-03-02T10:26:51.910Z,5.22
2023-03-02T10:27:51.966Z,5.23
2023-03-02T10:28:51.886Z,5.25
2023-03-02T10:29:51.882Z,5.27
2023-03-02T10:30:51.945Z,5.27
2023-03-02T10:31:51.918Z,5.31
2023-03-02T10:32:51.901Z,5.32
2023-03-02T10:33:51.864Z,5.35
2023-03-02T10:34:51.794Z,5.35
2023-03-02T10:35:51.893Z,5.37
2023-03-02T10:36:51.806Z,5.40
2023-03-02T10:37:51.817Z,5.40
2023-03-02T10:38:51.794Z,5.48
2023-03-02T10:39:51.773Z,5.56
2023-03-02T10:40:51.735Z,5.60
2023-03-02T10:41:51.734Z,5.59
2023-03-02T10:42:51.704Z,5.56
2023-03-02T10:43:51.718Z,5.55
2023-03-02T10:44:51.691Z,5.57
2023-03-02T10:45:51.732Z,5.59
2023-03-02T10:46:51.649Z,5.60
2023-03-02T10:47:51.679Z,5.63
2023-03-02T10:48:51.656Z,5.60
2023-03-02T10:49:54.326Z,5.66
2023-03-02T10:50:51.636Z,5.71
2023-03-02T10:51:51.654Z,5.78
2023-03-02T10:53:00.189Z,5.82
2023-03-02T10:53:51.576Z,5.86
2023-03-02T10:54:51.572Z,5.93
2023-03-02T10:55:51.603Z,6.03
2023-03-02T10:56:51.542Z,6.10
2023-03-02T10:57:51.553Z,6.18
2023-03-02T10:58:51.533Z,6.29
2023-03-02T10:59:51.567Z,6.35
2023-03-02T11:00:51.507Z,6.38
2023-03-02T11:01:51.516Z,6.40
2023-03-02T11:02:51.599Z,6.38
2023-03-02T11:03:51.462Z,6.35
2023-03-02T11:04:51.573Z,6.35
2023-03-02T11:05:51.456Z,6.33
2023-03-02T11:06:53.579Z,6.33
2023-03-02T11:08:06.389Z,6.35
2023-03-02T11:08:51.436Z,6.33
2023-03-02T11:09:51.416Z,6.35
2023-03-02T11:10:51.447Z,6.44
2023-03-02T11:11:51.444Z,6.48
2023-03-02T11:12:51.380Z,6.51
2023-03-02T11:13:51.367Z,6.54
2023-03-02T11:14:51.354Z,6.58
2023-03-02T11:15:51.363Z,6.61
2023-03-02T11:16:51.341Z,6.63
2023-03-02T11:17:51.322Z,6.65
2023-03-02T11:18:51.391Z,6.65
2023-03-02T11:19:51.310Z,6.68
2023-03-02T11:20:51.303Z,6.71
2023-03-02T11:21:51.269Z,6.71
2023-03-02T11:22:51.284Z,6.72
2023-03-02T11:23:51.295Z,6.73
2023-03-02T11:24:51.241Z,6.77
2023-03-02T11:25:51.250Z,6.84
2023-03-02T11:26:51.213Z,6.84
2023-03-02T11:27:51.237Z,6.89
2023-03-02T11:28:51.190Z,6.91
2023-03-02T11:29:51.213Z,6.94
2023-03-02T11:30:51.180Z,6.97
2023-03-02T11:31:51.301Z,6.97
2023-03-02T11:32:51.190Z,7.01
2023-03-02T11:33:51.216Z,7.04
2023-03-02T11:34:51.151Z,7.07
2023-03-02T11:35:51.158Z,7.16
2023-03-02T11:36:51.107Z,7.20
2023-03-02T11:37:51.123Z,7.24
2023-03-02T11:38:51.107Z,7.23
2023-03-02T11:39:55.744Z,7.22
2023-03-02T11:40:51.085Z,7.20
2023-03-02T11:41:51.063Z,7.22
2023-03-02T11:42:51.040Z,7.19
2023-03-02T11:43:51.034Z,7.17
2023-03-02T11:44:51.015Z,7.17
2023-03-02T11:45:51.049Z,7.19
2023-03-02T11:46:51.080Z,7.19
2023-03-02T11:47:57.646Z,7.22
2023-03-02T11:48:50.980Z,7.23
2023-03-02T11:49:50.965Z,7.23
2023-03-02T11:50:50.971Z,7.26
2023-03-02T11:58:04.193Z,7.35
2023-03-02T11:58:09.179Z,7.72
2023-03-02T11:59:09.920Z,7.72
2023-03-02T12:00:09.147Z,7.77
2023-03-02T12:01:09.176Z,7.77
2023-03-02T12:02:09.193Z,7.77
2023-03-02T12:03:09.186Z,7.81
2023-03-02T12:04:09.102Z,7.84
2023-03-02T12:05:09.257Z,7.93
2023-03-02T12:06:09.074Z,8.00
2023-03-02T12:07:09.061Z,8.07
2023-03-02T12:08:09.040Z,8.14
2023-03-02T12:09:09.112Z,8.15
2023-03-02T12:10:09.032Z,8.18
2023-03-02T12:11:09.060Z,8.18
2023-03-02T12:12:09.004Z,8.22
2023-03-02T12:13:09.013Z,8.29
2023-03-02T12:14:09.009Z,8.35
2023-03-02T12:15:08.994Z,8.39
2023-03-02T12:16:09.070Z,8.44
2023-03-02T12:17:09.756Z,8.40
2023-03-02T12:18:08.959Z,8.40
2023-03-02T12:19:08.936Z,8.44
2023-03-02T12:20:08.932Z,8.50
2023-03-02T12:21:09.775Z,8.50
2023-03-02T12:22:08.899Z,8.48
2023-03-02T12:23:08.907Z,8.54
2023-03-02T12:24:08.881Z,8.58
2023-03-02T12:25:08.876Z,8.65
2023-03-02T12:26:08.873Z,8.65
2023-03-02T12:27:08.839Z,8.63
2023-03-02T12:28:08.822Z,8.63
2023-03-02T12:29:08.809Z,8.60
2023-03-02T12:30:08.983Z,8.62
2023-03-02T12:31:08.837Z,8.60
2023-03-02T12:32:08.899Z,8.66
2023-03-02T12:33:08.818Z,8.69
2023-03-02T12:34:08.791Z,8.68
2023-03-02T12:35:08.860Z,8.71
2023-03-02T12:36:08.785Z,8.73
2023-03-02T12:37:08.767Z,8.76
2023-03-02T12:38:08.796Z,8.79
2023-03-02T12:39:08.715Z,8.81
2023-03-02T12:40:08.724Z,8.84
2023-03-02T12:41:08.735Z,8.84
2023-03-02T12:42:08.711Z,8.87
2023-03-02T12:43:08.703Z,8.86
2023-03-02T12:44:08.677Z,8.88
2023-03-02T12:45:08.672Z,8.88
2023-03-02T12:46:08.669Z,8.93
2023-03-02T12:47:08.831Z,8.96
2023-03-02T12:48:08.736Z,8.99
2023-03-02T12:49:09.656Z,9.01
2023-03-02T12:50:08.589Z,9.04
2023-03-02T12:51:08.627Z,9.05
2023-03-02T12:52:08.648Z,9.12
2023-03-02T12:53:08.593Z,9.16
2023-03-02T12:54:08.532Z,9.21
2023-03-02T12:55:08.555Z,9.28
2023-03-02T12:56:08.628Z,9.34
2023-03-02T12:57:08.578Z,9.35
2023-03-02T12:58:08.942Z,9.35
2023-03-02T12:59:08.504Z,9.38
2023-03-02T13:00:08.491Z,9.34
2023-03-02T13:01:08.646Z,9.32
2023-03-02T13:02:08.466Z,9.31
2023-03-02T13:03:09.450Z,9.28
2023-03-02T13:04:08.460Z,9.28
2023-03-02T13:05:08.458Z,9.30
2023-03-02T13:06:08.403Z,9.30
2023-03-02T13:07:08.428Z,9.30
2023-03-02T13:08:08.383Z,9.31
2023-03-02T13:09:08.475Z,9.30
2023-03-02T13:10:08.609Z,9.27
2023-03-02T13:11:09.868Z,9.27
2023-03-02T13:12:08.398Z,9.23
2023-03-02T13:13:08.378Z,9.20
2023-03-02T13:14:08.343Z,9.20
2023-03-02T13:15:09.289Z,9.20
2023-03-02T13:16:08.376Z,9.20
2023-03-02T13:17:08.458Z,9.23
2023-03-02T13:18:08.278Z,9.27
2023-03-02T13:19:08.289Z,9.28
2023-03-02T13:20:09.423Z,9.30
2023-03-02T13:21:08.258Z,9.30
2023-03-02T13:22:08.383Z,9.30
2023-03-02T13:23:08.262Z,9.32
2023-03-02T13:24:08.245Z,9.32
2023-03-02T13:25:08.193Z,9.35
2023-03-02T13:26:08.179Z,9.39
2023-03-02T13:27:08.387Z,9.40
2023-03-02T13:28:08.175Z,9.42
2023-03-02T13:29:08.173Z,9.45
2023-03-02T13:30:08.141Z,9.43
2023-03-02T13:31:08.250Z,9.46
2023-03-02T13:32:08.190Z,9.49
2023-03-02T13:33:08.116Z,9.50
2023-03-02T13:34:08.099Z,9.53
2023-03-02T13:35:08.095Z,9.53
2023-03-02T13:36:08.093Z,9.53
2023-03-02T13:37:08.076Z,9.56
2023-03-02T13:38:08.133Z,9.56
2023-03-02T13:39:08.065Z,9.60
2023-03-02T13:40:08.033Z,9.64
2023-03-02T13:41:10.065Z,9.66
2023-03-02T13:42:08.030Z,9.68
2023-03-02T13:43:07.994Z,9.68
2023-03-02T13:44:07.997Z,9.70
2023-03-02T13:45:08.045Z,9.71
2023-03-02T13:46:08.132Z,9.75
2023-03-02T13:47:07.961Z,9.76
2023-03-02T13:48:07.957Z,9.78
2023-03-02T13:49:10.571Z,9.78
2023-03-02T13:50:07.976Z,9.82
2023-03-02T13:51:07.972Z,9.85
2023-03-02T13:52:08.460Z,9.89
2023-03-02T13:53:07.893Z,9.94
2023-03-02T13:54:07.863Z,9.94
2023-03-02T13:55:07.917Z,9.97
2023-03-02T13:56:07.843Z,9.99
2023-03-02T13:57:07.870Z,10.00
2023-03-02T13:58:07.825Z,10.00
2023-03-02T13:59:07.916Z,10.04
2023-03-02T14:00:07.818Z,10.07
2023-03-02T14:01:07.835Z,10.07
2023-03-02T14:02:07.805Z,10.06
2023-03-02T14:03:07.774Z,10.04
2023-03-02T14:04:07.905Z,10.06
2023-03-02T14:05:07.911Z,10.04
2023-03-02T14:06:07.736Z,10.04
2023-03-02T14:07:07.834Z,10.04
2023-03-02T14:08:07.729Z,10.04
2023-03-02T14:09:07.718Z,10.04
2023-03-02T14:10:07.683Z,10.10
2023-03-02T14:11:07.694Z,10.15
2023-03-02T14:12:07.664Z,10.19
2023-03-02T14:13:07.688Z,10.25
2023-03-02T14:14:07.647Z,10.28
2023-03-02T14:15:07.686Z,10.30
2023-03-02T14:16:07.632Z,10.32
2023-03-02T14:17:07.639Z,10.34
2023-03-02T14:18:07.618Z,10.34
2023-03-02T14:19:07.603Z,10.36
2023-03-02T14:20:07.589Z,10.37
2023-03-02T14:21:07.765Z,10.34
2023-03-02T14:22:07.552Z,10.33
2023-03-02T14:23:07.988Z,10.32
2023-03-02T14:24:07.546Z,10.28
2023-03-02T14:25:07.542Z,10.25
2023-03-02T14:26:07.545Z,10.22
2023-03-02T14:27:07.499Z,10.22
2023-03-02T14:28:07.564Z,10.21
2023-03-02T14:29:07.484Z,10.21
2023-03-02T14:30:07.477Z,10.21
2023-03-02T14:31:07.506Z,10.21
2023-03-02T14:32:07.514Z,10.22
2023-03-02T14:33:07.449Z,10.24
2023-03-02T14:34:07.426Z,10.25
2023-03-02T14:35:07.453Z,10.25
2023-03-02T14:36:07.414Z,10.24
2023-03-02T14:37:07.417Z,10.22
2023-03-02T14:38:07.428Z,10.24
2023-03-02T14:39:07.403Z,10.24
2023-03-02T14:40:07.371Z,10.28
2023-03-02T14:41:07.451Z,10.32
2023-03-02T14:42:07.447Z,10.33
2023-03-02T14:43:07.333Z,10.36
2023-03-02T14:44:07.327Z,10.39
2023-03-02T14:45:07.314Z,10.40
2023-03-02T14:46:07.309Z,10.43
2023-03-02T14:47:07.345Z,10.44
2023-03-02T14:48:07.291Z,10.46
2023-03-02T14:49:07.268Z,10.43
2023-03-02T14:50:07.252Z,10.46
2023-03-02T14:51:07.247Z,10.52
2023-03-02T14:52:07.238Z,10.53
2023-03-02T14:53:07.256Z,10.53
2023-03-02T14:54:07.253Z,10.52
2023-03-02T14:55:07.235Z,10.52
2023-03-02T14:56:07.258Z,10.51
2023-03-02T14:57:07.216Z,10.47
2023-03-02T14:58:07.231Z,10.47
2023-03-02T14:59:07.204Z,10.47
2023-03-02T15:00:07.138Z,10.47
2023-03-02T15:01:07.129Z,10.46
2023-03-02T15:02:22.696Z,10.47
2023-03-02T15:03:08.013Z,10.46
2023-03-02T15:04:07.112Z,10.47
2023-03-02T15:05:07.119Z,10.47
2023-03-02T15:06:07.092Z,10.47
2023-03-02T15:07:07.082Z,10.46
2023-03-02T15:08:07.065Z,10.42
2023-03-02T15:09:07.052Z,10.36
2023-03-02T15:10:07.050Z,10.33
2023-03-02T15:11:07.058Z,10.30
2023-03-02T15:12:07.018Z,10.28
2023-03-02T15:13:07.064Z,10.26
2023-03-02T15:14:06.993Z,10.24
2023-03-02T15:15:06.981Z,10.24
2023-03-02T15:16:07.140Z,10.22
2023-03-02T15:17:07.006Z,10.21
2023-03-02T15:18:06.969Z,10.21
2023-03-02T15:19:06.977Z,10.19
2023-03-02T15:20:06.994Z,10.21
2023-03-02T15:21:06.966Z,10.14
2023-03-02T15:22:06.913Z,10.12
2023-03-02T15:23:07.786Z,10.07
2023-03-02T15:24:06.982Z,10.04
2023-03-02T15:25:06.891Z,10.06
2023-03-02T15:26:06.922Z,10.03
2023-03-02T15:27:06.867Z,10.03
2023-03-02T15:28:06.844Z,10.01
2023-03-02T15:29:06.840Z,9.97
2023-03-02T15:30:06.925Z,9.93
2023-03-02T15:31:06.904Z,9.91
2023-03-02T15:32:06.831Z,9.89
2023-03-02T15:33:07.011Z,9.83
2023-03-02T15:34:06.784Z,9.79
2023-03-02T15:35:06.765Z,9.73
2023-03-02T15:36:06.768Z,9.67
2023-03-02T15:37:06.749Z,9.63
2023-03-02T15:38:06.761Z,9.60
2023-03-02T15:39:06.792Z,9.53
2023-03-02T15:40:06.719Z,9.50
2023-03-02T15:41:06.699Z,9.43
2023-03-02T15:42:06.732Z,9.39
2023-03-02T15:43:06.688Z,9.35
2023-03-02T15:44:06.763Z,9.30
2023-03-02T15:45:06.643Z,9.25
2023-03-02T15:46:06.688Z,9.23
2023-03-02T15:47:06.636Z,9.20
2023-03-02T15:48:06.688Z,9.15
2023-03-02T15:49:06.630Z,9.09
2023-03-02T15:50:06.657Z,9.04
2023-03-02T15:51:06.577Z,8.99
2023-03-02T15:52:06.629Z,8.96
2023-03-02T15:53:06.549Z,8.90
2023-03-02T15:54:06.566Z,8.87
2023-03-02T15:55:06.530Z,8.81
2023-03-02T15:56:07.269Z,8.75
2023-03-02T15:57:06.565Z,8.75
2023-03-02T15:58:06.826Z,8.72
2023-03-02T15:59:27.470Z,8.69
2023-03-02T16:00:06.476Z,8.66
2023-03-02T16:01:06.551Z,8.66
2023-03-02T16:02:06.538Z,8.63
2023-03-02T16:03:06.568Z,8.62
2023-03-02T16:04:06.466Z,8.60
2023-03-02T16:05:06.432Z,8.58
2023-03-02T16:06:06.445Z,8.55
2023-03-02T16:07:06.423Z,8.53
2023-03-02T16:08:06.435Z,8.50
2023-03-02T16:09:06.420Z,8.45
2023-03-02T16:10:14.409Z,8.42
2023-03-02T16:11:06.431Z,8.40
2023-03-02T16:12:06.358Z,8.37
2023-03-02T16:13:06.343Z,8.33
2023-03-02T16:14:06.343Z,8.32
2023-03-02T16:15:06.329Z,8.30
2023-03-02T16:16:06.457Z,8.26
2023-03-02T16:17:06.305Z,8.22
2023-03-02T16:18:06.285Z,8.18
2023-03-02T16:19:06.278Z,8.15
2023-03-02T16:20:06.271Z,8.11
2023-03-02T16:21:06.360Z,8.08
2023-03-02T16:22:15.754Z,8.02
2023-03-02T16:23:06.261Z,8.02
2023-03-02T16:24:06.249Z,7.97
2023-03-02T16:25:06.205Z,7.96
2023-03-02T16:26:27.221Z,7.92
2023-03-02T16:27:06.173Z,7.89
2023-03-02T16:28:06.180Z,7.85
2023-03-02T16:29:06.203Z,7.79
2023-03-02T16:30:06.163Z,7.75
2023-03-02T16:31:43.073Z,7.72
2023-03-02T16:32:06.204Z,7.67
2023-03-02T16:33:06.171Z,7.67
2023-03-02T16:34:06.128Z,7.60
2023-03-02T16:35:06.144Z,7.58
2023-03-02T16:36:06.166Z,7.53
2023-03-02T16:37:06.108Z,7.49
2023-03-02T16:38:07.734Z,7.44
2023-03-02T16:39:06.072Z,7.41
2023-03-02T16:40:06.145Z,7.38
2023-03-02T16:41:08.646Z,7.35
2023-03-02T16:42:06.020Z,7.32
2023-03-02T16:43:05.999Z,7.27
2023-03-02T16:44:06.016Z,7.24
2023-03-02T16:45:06.103Z,7.22
2023-03-02T16:46:06.105Z,7.19
2023-03-02T16:47:06.003Z,7.13
2023-03-02T16:48:05.968Z,7.12
2023-03-02T16:49:05.968Z,7.08
2023-03-02T16:50:05.957Z,7.01
2023-03-02T16:51:05.960Z,6.99
2023-03-02T16:52:05.923Z,6.95
2023-03-02T16:53:05.945Z,6.89
2023-03-02T16:54:05.984Z,6.84
2023-03-02T16:55:05.914Z,6.79
2023-03-02T16:56:05.865Z,6.71
2023-03-02T16:57:05.873Z,6.66
2023-03-02T16:58:05.915Z,6.62
2023-03-02T16:59:05.860Z,6.56
2023-03-02T17:00:05.870Z,6.51
2023-03-02T17:01:06.001Z,6.47
2023-03-02T17:02:05.806Z,6.43
2023-03-02T17:03:05.796Z,6.38
2023-03-02T17:04:06.182Z,6.33
2023-03-02T17:05:05.775Z,6.30
2023-03-02T17:06:05.760Z,6.26
2023-03-02T17:07:05.737Z,6.21
2023-03-02T17:08:05.745Z,6.14
2023-03-02T17:09:05.776Z,6.09
2023-03-02T17:10:05.835Z,6.07
2023-03-02T17:11:06.032Z,6.00
2023-03-02T17:12:07.354Z,5.95
2023-03-02T17:13:05.764Z,5.89
2023-03-02T17:14:05.726Z,5.83
2023-03-02T17:15:05.707Z,5.82
2023-03-02T17:16:05.839Z,5.77
2023-03-02T17:17:05.635Z,5.74
2023-03-02T17:18:05.631Z,5.67
2023-03-02T17:21:22.527Z,5.55
2023-03-02T17:22:22.936Z,5.50
2023-03-02T17:25:05.980Z,5.37
2023-03-02T17:26:06.011Z,5.32
2023-03-02T17:27:15.909Z,5.28
2023-03-02T17:28:05.948Z,5.22
2023-03-02T17:29:05.942Z,5.19
2023-03-02T17:30:11.225Z,5.17
2023-03-02T17:32:30.559Z,5.04
2023-03-02T17:33:30.543Z,4.99
2023-03-02T17:34:30.544Z,4.96
2023-03-02T17:35:30.494Z,4.95
2023-03-02T17:36:31.356Z,4.91
2023-03-02T17:37:39.506Z,4.86
2023-03-02T17:38:30.457Z,4.86
2023-03-02T17:39:30.455Z,4.83
2023-03-02T17:42:11.233Z,4.73
2023-03-02T17:43:11.846Z,4.70
2023-03-02T17:44:11.542Z,4.70
2023-03-02T17:45:12.671Z,4.65
2023-03-02T17:46:10.862Z,4.61
2023-03-02T17:47:10.790Z,4.59
2023-03-02T17:48:10.846Z,4.57
2023-03-02T17:49:10.765Z,4.54
2023-03-02T17:50:10.757Z,4.52
2023-03-02T17:51:10.745Z,4.50
2023-03-02T17:52:10.729Z,4.47
2023-03-02T17:53:10.737Z,4.44
2023-03-02T17:54:10.718Z,4.43
2023-03-02T17:55:10.747Z,4.40
2023-03-02T17:56:10.691Z,4.33
2023-03-02T17:57:10.696Z,4.36
2023-03-02T17:58:10.657Z,4.32
2023-03-02T17:59:10.650Z,4.28
2023-03-02T18:00:10.693Z,4.26
2023-03-02T18:01:10.665Z,4.22
2023-03-02T18:02:10.714Z,4.19
2023-03-02T18:03:10.965Z,4.18
2023-03-02T18:04:10.715Z,4.16
2023-03-02T18:05:10.962Z,4.15
2023-03-02T18:06:10.603Z,4.10
2023-03-02T18:07:10.619Z,4.07
2023-03-02T18:08:13.366Z,4.07
2023-03-02T18:09:10.562Z,4.03
2023-03-02T18:10:13.167Z,4.00
2023-03-02T18:11:13.104Z,4.00
2023-03-02T18:12:10.530Z,3.96
2023-03-02T18:13:10.561Z,3.94
2023-03-02T18:14:10.493Z,3.90
2023-03-02T18:15:10.467Z,3.89
2023-03-02T18:16:10.514Z,3.86
2023-03-02T18:17:10.446Z,3.85
2023-03-02T18:18:10.460Z,3.82
2023-03-02T18:19:10.444Z,3.79
2023-03-02T18:20:10.483Z,3.78
2023-03-02T18:21:10.463Z,3.76
2023-03-02T18:22:10.727Z,3.76
2023-03-02T18:23:10.396Z,3.75
2023-03-02T18:24:10.404Z,3.71
2023-03-02T18:25:10.446Z,3.72
2023-03-02T18:26:11.285Z,3.71
2023-03-02T18:27:10.342Z,3.68
2023-03-02T18:28:10.344Z,3.68
2023-03-02T18:29:10.322Z,3.65
2023-03-02T18:30:10.307Z,3.64
2023-03-02T18:31:11.126Z,3.62
2023-03-02T18:32:10.365Z,3.62
2023-03-02T18:33:10.368Z,3.61
2023-03-02T18:34:10.527Z,3.60
2023-03-02T18:35:10.250Z,3.57
2023-03-02T18:36:10.260Z,3.54
2023-03-02T18:37:10.229Z,3.53
2023-03-02T18:38:10.213Z,3.53
2023-03-02T18:39:10.214Z,3.52
2023-03-02T18:40:10.236Z,3.50
2023-03-02T18:41:10.201Z,3.50
2023-03-02T18:42:12.488Z,3.50
2023-03-02T18:43:10.156Z,3.47
2023-03-02T18:44:10.185Z,3.47
2023-03-02T18:45:10.149Z,3.46
2023-03-02T18:46:10.185Z,3.47
2023-03-02T18:47:10.116Z,3.44
2023-03-02T18:48:10.096Z,3.43
2023-03-02T18:49:10.092Z,3.42
2023-03-02T18:50:10.084Z,3.42
2023-03-02T18:51:10.081Z,3.40
2023-03-02T18:52:10.865Z,3.40
2023-03-02T18:53:12.490Z,3.36
2023-03-02T18:54:10.035Z,3.34
2023-03-02T18:55:10.054Z,3.36
2023-03-02T18:56:10.125Z,3.33
2023-03-02T18:57:10.019Z,3.33
2023-03-02T18:58:09.998Z,3.28
2023-03-02T18:59:10.001Z,3.28
2023-03-02T19:00:09.971Z,3.27
2023-03-02T19:01:10.076Z,3.27
2023-03-02T19:02:09.997Z,3.25
2023-03-02T19:03:09.937Z,3.24
2023-03-02T19:04:09.933Z,3.24
2023-03-02T19:05:10.724Z,3.21
2023-03-02T19:06:09.928Z,3.20
2023-03-02T19:07:09.899Z,3.20
2023-03-02T19:08:10.010Z,3.18
2023-03-02T19:09:09.885Z,3.16
2023-03-02T19:10:09.878Z,3.13
2023-03-02T19:11:09.860Z,3.13
2023-03-02T19:12:09.887Z,3.13
2023-03-02T19:13:09.844Z,3.10
2023-03-02T19:14:09.839Z,3.10
2023-03-02T19:15:09.818Z,3.10
2023-03-02T19:16:09.961Z,3.09
2023-03-02T19:17:09.828Z,3.09
2023-03-02T19:18:09.795Z,3.07
2023-03-02T19:19:09.808Z,3.06
2023-03-02T19:20:09.769Z,3.05
2023-03-02T19:21:09.777Z,3.02
2023-03-02T19:22:09.753Z,3.02
2023-03-02T19:23:10.553Z,3.02
2023-03-02T19:24:09.775Z,2.95
2023-03-02T19:25:09.697Z,2.97
2023-03-02T19:26:09.748Z,2.95
2023-03-02T19:27:11.461Z,2.94
2023-03-02T19:28:09.671Z,2.91
2023-03-02T19:29:09.654Z,2.89
2023-03-02T19:30:09.651Z,2.88
2023-03-02T19:31:09.673Z,2.87
2023-03-02T19:32:09.707Z,2.85
2023-03-02T19:33:09.612Z,2.84
2023-03-02T19:34:09.643Z,2.81
2023-03-02T19:35:09.590Z,2.79
2023-03-02T19:36:09.601Z,2.81
2023-03-02T19:37:09.663Z,2.77
2023-03-02T19:38:09.624Z,2.74
2023-03-02T19:39:09.570Z,2.74
2023-03-02T19:40:09.570Z,2.71
2023-03-02T19:41:09.532Z,2.71
2023-03-02T19:42:09.527Z,2.71
2023-03-02T19:43:09.513Z,2.67
2023-03-02T19:44:09.513Z,2.69
2023-03-02T19:45:09.480Z,2.69
2023-03-02T19:46:09.497Z,2.66
2023-03-02T19:47:09.474Z,2.66
2023-03-02T19:48:09.446Z,2.64
2023-03-02T19:49:09.568Z,2.63
2023-03-02T19:50:09.420Z,2.63
2023-03-02T19:51:09.447Z,2.61
2023-03-02T19:52:09.432Z,2.59
2023-03-02T19:53:09.382Z,2.59
2023-03-02T19:54:09.384Z,2.58
2023-03-02T19:55:10.721Z,2.58
2023-03-02T19:56:09.372Z,2.56
2023-03-02T19:57:09.447Z,2.55
2023-03-02T19:58:09.330Z,2.55
2023-03-02T19:59:09.318Z,2.55
2023-03-02T20:00:09.322Z,2.52
2023-03-02T20:01:11.002Z,2.51
2023-03-02T20:02:09.737Z,2.51
2023-03-02T20:03:09.292Z,2.51
2023-03-02T20:04:09.278Z,2.51
2023-03-02T20:05:09.256Z,2.49
2023-03-02T20:06:09.272Z,2.48
2023-03-02T20:07:09.277Z,2.48
2023-03-02T20:08:09.227Z,2.46
2023-03-02T20:09:09.206Z,2.46
2023-03-02T20:10:09.267Z,2.45
2023-03-02T20:11:09.222Z,2.44
2023-03-02T20:12:09.212Z,2.41
2023-03-02T20:13:09.187Z,2.41
2023-03-02T20:14:09.170Z,2.41
2023-03-02T20:15:09.186Z,2.38
2023-03-02T20:16:09.228Z,2.38
2023-03-02T20:17:09.206Z,2.37
2023-03-02T20:18:09.137Z,2.37
2023-03-02T20:19:09.148Z,2.37
2023-03-02T20:20:09.100Z,2.35
2023-03-02T20:21:09.098Z,2.37
2023-03-02T20:22:09.086Z,2.34
2023-03-02T20:23:09.893Z,2.35
2023-03-02T20:24:09.309Z,2.33
2023-03-02T20:25:09.081Z,2.33
2023-03-02T20:26:09.048Z,2.31
2023-03-02T20:27:09.033Z,2.31
2023-03-02T20:28:09.003Z,2.28
2023-03-02T20:29:09.039Z,2.31
2023-03-02T20:30:09.091Z,2.27
2023-03-02T20:31:09.087Z,2.28
2023-03-02T20:32:09.145Z,2.28
2023-03-02T20:33:08.999Z,2.28
2023-03-02T20:34:08.931Z,2.28
2023-03-02T20:35:08.928Z,2.27
2023-03-02T20:36:08.954Z,2.26
2023-03-02T20:37:08.930Z,2.26
2023-03-02T20:38:08.889Z,2.23
2023-03-02T20:39:08.904Z,2.20
2023-03-02T20:40:08.928Z,2.20
2023-03-02T20:41:08.870Z,2.19
2023-03-02T20:42:08.870Z,2.20
2023-03-02T20:43:08.865Z,2.19
2023-03-02T20:44:08.867Z,2.17
2023-03-02T20:45:09.024Z,2.19
2023-03-02T20:46:08.858Z,2.16
2023-03-02T20:47:08.826Z,2.16
2023-03-02T20:48:08.806Z,2.16
2023-03-02T20:49:08.769Z,2.16
2023-03-02T20:50:08.754Z,2.12
2023-03-02T20:51:08.774Z,2.12
2023-03-02T20:52:08.770Z,2.10
2023-03-02T20:53:08.742Z,2.10
2023-03-02T20:54:08.731Z,2.09
2023-03-02T20:55:08.714Z,2.09
2023-03-02T20:56:08.820Z,2.06
2023-03-02T20:57:08.717Z,2.08
2023-03-02T20:58:08.704Z,2.08
2023-03-02T20:59:08.879Z,2.06
2023-03-02T21:00:08.656Z,2.04
2023-03-02T21:01:08.747Z,2.02
2023-03-02T21:02:08.646Z,2.04
2023-03-02T21:03:08.635Z,2.01
2023-03-02T21:04:08.721Z,2.01
2023-03-02T21:05:08.594Z,1.98
2023-03-02T21:06:08.582Z,1.99
2023-03-02T21:07:08.568Z,1.98
2023-03-02T21:08:08.571Z,1.97
2023-03-02T21:09:08.770Z,1.97
2023-03-02T21:10:08.563Z,1.98
2023-03-02T21:11:08.516Z,1.94
2023-03-02T21:12:08.531Z,1.94
2023-03-02T21:13:08.516Z,1.97
2023-03-02T21:14:08.687Z,1.97
2023-03-02T21:15:08.486Z,1.94
2023-03-02T21:16:08.576Z,1.93
2023-03-02T21:17:08.465Z,1.91
2023-03-02T21:18:08.486Z,1.91
2023-03-02T21:19:08.581Z,1.93
2023-03-02T21:20:08.431Z,1.91
2023-03-02T21:21:08.415Z,1.91
2023-03-02T21:22:08.475Z,1.90
2023-03-02T21:23:08.421Z,1.91
2023-03-02T21:24:08.847Z,1.90
2023-03-02T21:25:08.366Z,1.89
2023-03-02T21:26:08.363Z,1.89
2023-03-02T21:27:08.362Z,1.90
2023-03-02T21:28:08.359Z,1.89
2023-03-02T21:29:08.546Z,1.87
2023-03-02T21:30:08.324Z,1.85
2023-03-02T21:31:08.340Z,1.85
2023-03-02T21:32:08.328Z,1.85
2023-03-02T21:33:08.300Z,1.83
2023-03-02T21:34:08.269Z,1.83
2023-03-02T21:35:08.260Z,1.83
2023-03-02T21:36:08.248Z,1.83
2023-03-02T21:37:08.251Z,1.83
2023-03-02T21:38:08.249Z,1.83
2023-03-02T21:39:08.235Z,1.80
2023-03-02T21:40:08.219Z,1.82
2023-03-02T21:41:08.189Z,1.80
2023-03-02T21:42:08.191Z,1.82
2023-03-02T21:43:08.186Z,1.80
2023-03-02T21:44:08.173Z,1.80
2023-03-02T21:45:08.151Z,1.79
2023-03-02T21:46:08.184Z,1.80
2023-03-02T21:47:08.140Z,1.80
2023-03-02T21:48:08.134Z,1.80
2023-03-02T21:49:08.109Z,1.79
2023-03-02T21:50:08.236Z,1.79
2023-03-02T21:51:08.088Z,1.80
2023-03-02T21:52:08.086Z,1.79
2023-03-02T21:53:08.071Z,1.78
2023-03-02T21:54:08.047Z,1.79
2023-03-02T21:55:08.041Z,1.78
2023-03-02T21:56:08.031Z,1.78
2023-03-02T21:57:08.055Z,1.76
2023-03-02T21:58:08.014Z,1.75
2023-03-02T21:59:08.016Z,1.75
2023-03-02T22:00:08.000Z,1.73
2023-03-02T22:01:07.979Z,1.72
2023-03-02T22:02:08.100Z,1.72
2023-03-02T22:03:07.983Z,1.72
2023-03-02T22:04:07.953Z,1.69
2023-03-02T22:05:07.988Z,1.69
2023-03-02T22:06:07.943Z,1.69
2023-03-02T22:07:07.912Z,1.69
2023-03-02T22:08:07.953Z,1.68
2023-03-02T22:09:07.887Z,1.71
2023-03-02T22:10:07.898Z,1.69
2023-03-02T22:11:07.865Z,1.69
2023-03-02T22:12:07.885Z,1.69
2023-03-02T22:13:07.865Z,1.69
2023-03-02T22:14:07.832Z,1.69
2023-03-02T22:15:07.884Z,1.65
2023-03-02T22:16:07.871Z,1.65
2023-03-02T22:17:07.815Z,1.64
2023-03-02T22:18:07.803Z,1.62
2023-03-02T22:19:07.807Z,1.62
2023-03-02T22:20:07.788Z,1.64
2023-03-02T22:21:07.758Z,1.64
2023-03-02T22:22:07.742Z,1.64
2023-03-02T22:23:07.737Z,1.62
2023-03-02T22:24:07.734Z,1.64
2023-03-02T22:25:07.743Z,1.64
2023-03-02T22:26:07.712Z,1.60
2023-03-02T22:27:07.732Z,1.61
2023-03-02T22:28:07.775Z,1.61
2023-03-02T22:29:07.691Z,1.60
2023-03-02T22:30:07.670Z,1.60
2023-03-02T22:31:07.660Z,1.60
2023-03-02T22:32:07.722Z,1.61
2023-03-02T22:33:07.674Z,1.60
2023-03-02T22:34:07.648Z,1.58
2023-03-02T22:35:07.614Z,1.57
2023-03-02T22:36:07.754Z,1.57
2023-03-02T22:37:07.587Z,1.57
2023-03-02T22:38:07.575Z,1.57
2023-03-02T22:39:07.691Z,1.57
2023-03-02T22:40:07.548Z,1.55
2023-03-02T22:41:07.588Z,1.57
2023-03-02T22:42:07.533Z,1.57
2023-03-02T22:43:07.530Z,1.54
2023-03-02T22:44:07.513Z,1.55
2023-03-02T22:45:07.499Z,1.52
2023-03-02T22:46:07.509Z,1.52
2023-03-02T22:47:07.518Z,1.51
2023-03-02T22:48:07.473Z,1.51
2023-03-02T22:49:07.479Z,1.50
2023-03-02T22:50:07.474Z,1.51
2023-03-02T22:51:07.470Z,1.50
2023-03-02T22:52:07.419Z,1.50
2023-03-02T22:53:07.446Z,1.50
2023-03-02T22:54:07.433Z,1.50
2023-03-02T22:55:07.391Z,1.47
2023-03-02T22:56:07.372Z,1.46
2023-03-02T22:57:07.371Z,1.44
2023-03-02T22:58:07.361Z,1.44
2023-03-02T22:59:07.374Z,1.44
2023-03-02T23:00:07.360Z,1.44
2023-03-02T23:01:07.386Z,1.43
2023-03-02T23:02:07.310Z,1.44
2023-03-02T23:03:07.372Z,1.43
2023-03-02T23:04:07.389Z,1.43
2023-03-02T23:05:07.275Z,1.43
2023-03-02T23:06:07.333Z,1.43
2023-03-02T23:07:07.300Z,1.42
2023-03-02T23:08:07.339Z,1.42
2023-03-02T23:09:07.256Z,1.42
2023-03-02T23:10:07.245Z,1.42
2023-03-02T23:11:07.245Z,1.42
2023-03-02T23:12:07.212Z,1.42
2023-03-02T23:13:07.236Z,1.40
2023-03-02T23:14:07.208Z,1.40
2023-03-02T23:15:07.182Z,1.40
2023-03-02T23:16:07.184Z,1.42
2023-03-02T23:17:07.170Z,1.39
2023-03-02T23:18:07.159Z,1.39
2023-03-02T23:19:07.170Z,1.39
2023-03-02T23:20:07.158Z,1.40
2023-03-02T23:21:07.119Z,1.40
2023-03-02T23:22:07.095Z,1.40
2023-03-02T23:23:07.221Z,1.39
2023-03-02T23:24:07.106Z,1.40
2023-03-02T23:25:07.073Z,1.39
2023-03-02T23:26:07.046Z,1.39
2023-03-02T23:27:07.039Z,1.39
2023-03-02T23:28:07.028Z,1.39
2023-03-02T23:29:07.171Z,1.37
2023-03-02T23:30:07.015Z,1.37
2023-03-02T23:31:07.018Z,1.37
2023-03-02T23:32:07.220Z,1.37
2023-03-02T23:33:07.036Z,1.39
2023-03-02T23:34:06.978Z,1.39
2023-03-02T23:35:06.976Z,1.36
2023-03-02T23:36:06.968Z,1.39
2023-03-02T23:37:06.959Z,1.36
2023-03-02T23:38:06.917Z,1.36
2023-03-02T23:39:06.916Z,1.34
2023-03-02T23:40:06.947Z,1.36
2023-03-02T23:41:06.882Z,1.36
2023-03-02T23:42:06.903Z,1.36
2023-03-02T23:43:06.963Z,1.36
2023-03-02T23:44:06.880Z,1.34
2023-03-02T23:45:06.837Z,1.33
2023-03-02T23:46:06.906Z,1.34
2023-03-02T23:47:06.839Z,1.33
2023-03-02T23:48:06.801Z,1.34
2023-03-02T23:49:06.808Z,1.32
2023-03-02T23:50:06.812Z,1.33
2023-03-02T23:51:06.849Z,1.33
2023-03-02T23:52:06.787Z,1.33
2023-03-02T23:53:06.871Z,1.33